Ivanovo, Russia
Current Conditions -  °F | °C
As of 9:30 PM on Thursday 18 Dec 2014 (Local Time) from UUDL Reporting Station
Overcast Overcast  
Wind Chill: 28°   Ceiling: 1100
Heat Index: 34°   Visibility: 6mi
Dew Point: 32°   Wind: 7mph
Humidity: 93%   Direction: 200°SSW
Pressure: 29.71"   Gusts: NA
Location:  57.01°N, 40.99°E
Report Text: UUDL 181830Z 20003MPS 9999 OVC011 01/M00 Q1006 NOSIG RMK QFE74623290050
Loading
Personal Weather Stations






























Interactive Weather Map New forecast layout! Learn more

10-Day Weather Forecast

Advertisements
Track Severe Weather on mobile